x

Central Gulf Of Alaska - 265nm West Of Cape Ommaney, Akk (46085) Wave Buoy

9:50am - Mon 5th Dec 2016 All times are UTC.

  • Sig Wave height 9.2ft
  • Peak Period 11s
  • Average Period 7s
  • Wind
    11mph, 16mph gusts
  • Sea Temp 46°f
  • Air Temp 40°f
  • Sea Pressure 1025.2mb

More Historic Weather Station data

Upgrade to MSW Pro to gain access to the past 30 days of data for over 8000 Wavebouys and Weather Stations around the globe.

Join Pro

Comparision Forecast

View Surf forecast
   
Mon 12/05 9:50am 9ft 11s 7s 11 16 mph 1025.2mb 46f 40f
8:50am 10.5ft 9s 7s 16 22 mph 1024.4mb 46f 41f
7:50am 11ft 10s 7s 16 20 mph 1023.3mb 46f 39f
6:50am 11ft 11s 7s 20 25 mph 1022.2mb 46f 40f
5:50am 14ft 11s 7s 20 27 mph 1021.1mb 46f 40f
4:50am 14ft 11s 7s 22 27 mph 1020.1mb 46f 39f
3:50am 14.5ft 11s 8s 25 31 mph 1019mb 46f 39f
2:50am 13ft 11s 7s 20 27 mph 1017.7mb 46f 40f
1:50am 14.5ft 11s 8s 22 27 mph 1016.6mb 46f 39f
12:50am 14ft 11s 7s 22 27 mph 1015.3mb 46f 39f
Sun 12/04 11:50pm 14.5ft 11s 7s 29 36 mph 1013.6mb 46f 39f
10:50pm 15ft 11s 7s 31 38 mph 1012.1mb 46f 36f
9:50pm 15ft 12s 7s 38 47 mph 1008.9mb 46f 37f
8:50pm 15.5ft 13s 8s 22 27 mph 1007.6mb 46f 36f
7:50pm 17.5ft 13s 9s 25 34 mph 1005.9mb 46f 36f
6:50pm 20.5ft 13s 9s 29 36 mph 1003.2mb 46f 37f
5:50pm 21.5ft 13s 9s 9 16 mph 1001.2mb 46f 40f
4:50pm 20.5ft 13s 8s 25 34 mph 1001.7mb 46f 39f
3:50pm 21.5ft 12s 9s 29 38 mph 1003.1mb 46f 37f
2:50pm 20.5ft 13s 8s 27 36 mph 1004.2mb 46f 37f
1:50pm 22ft 13s 9s 31 38 mph 1005.3mb 46f 37f
12:50pm 19.5ft 13s 9s 27 36 mph 1006.2mb 46f 34f
11:50am 18ft 11s 8s 25 31 mph 1007mb 46f 35f
10:50am 17.5ft 13s 8s 25 36 mph 1007.4mb 46f 35f
9:50am 16.5ft 12s 8s 18 25 mph 1008.1mb 46f 32f
8:50am 17.5ft 12s 9s 18 27 mph 1007.9mb 46f 32f
7:50am 18.5ft 11s 9s 20 27 mph 1008mb 46f 32f
6:50am 18.5ft 12s 9s 27 38 mph 1007.7mb 46f 32f
5:50am 17.5ft 12s 8s 25 31 mph 1007.7mb 46f 30f
4:50am 21.5ft 13s 9s 34 40 mph 1007.3mb 46f 31f
3:50am 22.5ft 13s 9s 31 40 mph 1007.2mb 46f 33f
2:50am 21.5ft 14s 9s 34 45 mph 1007.5mb 46f 32f
1:50am 20.5ft 14s 8s 31 40 mph 1007.8mb 46f 31f
12:50am 22.5ft 14s 9s 31 40 mph 1007.4mb 46f 36f
Sat 12/03 11:50pm 23ft 14s 9s 36 45 mph 1007.4mb 46f 37f
10:50pm 23ft 13s 9s 31 40 mph 1007.8mb 46f 35f
9:50pm 21.5ft 13s 8s 31 38 mph 1008.3mb 46f 36f
8:50pm 22.5ft 13s 9s 29 40 mph 1008.5mb 46f 35f
7:50pm 22.5ft 13s 9s 34 43 mph 1008mb 46f 37f
6:50pm 21.5ft 13s 8s 31 40 mph 1007.6mb 46f 36f
5:50pm 22.5ft 14s 9s 31 43 mph 1007mb 46f 35f
4:50pm 21ft 12s 9s 34 45 mph 1006.2mb 46f 35f
3:50pm 20.5ft 14s 9s 31 45 mph 1005.5mb 46f 35f
2:50pm 21ft 14s 9s 31 40 mph 1005.3mb 46f 33f
1:50pm 20.5ft 14s 9s 27 34 mph 1004.4mb 46f 35f
12:50pm 20.5ft 13s 8s 29 38 mph 1003.6mb 46f 37f
11:50am 24.5ft 14s 9s 36 45 mph 1003mb 47f 37f
10:50am 21.5ft 14s 9s 34 43 mph 1002mb 47f 38f
9:50am 20.5ft 12s 8s 31 40 mph 1001.1mb 47f 36f
8:50am 22.5ft 14s 9s 29 36 mph 999.8mb 47f 39f
7:50am 23ft 12s 9s 27 34 mph 999mb 47f 37f
6:50am 22.5ft 14s 9s 34 45 mph 998mb 47f 38f
5:50am 22ft 12s 8s 34 45 mph 997.1mb 47f 39f
4:50am 21ft 14s 8s 36 49 mph 996.1mb 47f 39f
3:50am 23ft 11s 9s 36 45 mph 995.1mb 47f 39f
2:50am 21.5ft 14s 8s 36 45 mph 994mb 47f 40f
1:50am 24.5ft 13s 9s 38 47 mph 992.7mb 47f 41f
12:50am 23.5ft 11s 9s 36 45 mph 991.7mb 47f 40f
Fri 12/02 11:50pm 20.5ft 14s 8s 36 47 mph 990.3mb 47f 42f
10:50pm 23ft 13s 8s 40 54 mph 988.6mb 47f 42f
9:50pm 21ft 11s 8s 36 47 mph 986.9mb 47f 43f
8:50pm 21ft 15s 8s 36 45 mph 985.4mb 47f 44f
7:50pm 20ft 11s 8s 36 45 mph 984.2mb 47f 44f
6:50pm 22.5ft 14s 8s 34 45 mph 982mb 47f 44f
5:50pm 23ft 15s 9s 38 47 mph 979.8mb 47f 45f
4:50pm 21.5ft 12s 9s 40 51 mph 977.2mb 47f 45f
3:50pm 21.5ft 11s 8s 40 49 mph 974.9mb 47f 44f
2:50pm 19ft 10s 8s 40 54 mph 972.3mb 47f 45f
1:50pm 15.5ft 11s 7s 38 49 mph 970.4mb 47f 45f
12:50pm 15ft 11s 8s 36 47 mph 967.7mb 47f 45f
11:50am 16ft 11s 9s 27 34 mph 965.4mb 47f 47f
10:50am 15.5ft 9s 8s 18 22 mph 964mb 47f 45f
9:50am 15.5ft 10s 9s 11 16 mph 963.4mb 47f 45f
8:50am 16.5ft 10s 8s 16 20 mph 963.2mb 47f 45f
7:50am 15ft 10s 8s 16 20 mph 963.1mb 47f 45f
6:50am 15ft 9s 8s 16 18 mph 963.4mb 47f 45f
5:50am 15.5ft 9s 8s 18 22 mph 964mb 47f 45f
4:50am 16.5ft 9s 7s 18 22 mph 965.5mb 47f 45f
3:50am 17.5ft 8s 7s 38 49 mph 968.3mb 47f 44f
2:50am 15ft 7s 7s 45 54 mph 973.3mb 47f 42f
1:50am 14ft 11s 6s 43 51 mph 978.3mb 47f 43f
12:50am 13.5ft 11s 7s 36 43 mph 983.4mb 47f 42f
Thu 12/01 11:50pm 12ft 12s 7s 34 43 mph 987.6mb 47f 43f
10:50pm 14ft 11s 8s 22 27 mph 991.3mb 47f 44f
9:50pm 13ft 13s 8s 18 22 mph 994.1mb 47f 45f
8:50pm 12ft 12s 8s 18 22 mph 996.1mb 47f 45f
7:50pm 12.5ft 11s 8s 18 22 mph 997.6mb 47f 45f
6:50pm 12ft 11s 8s 16 20 mph 998mb 47f 45f
5:50pm 11.5ft 11s 7s 22 27 mph 998.5mb 47f 45f
4:50pm 13ft 11s 8s 22 27 mph 998.7mb 47f 45f
3:50pm 12ft 11s 7s 22 27 mph 998.2mb 47f 45f
2:50pm 11ft 9s 7s 20 22 mph 996.9mb 47f 45f
1:50pm 11ft 10s 7s 20 25 mph 996.7mb 47f 45f
12:50pm 10.5ft 10s 6s 22 27 mph 996.1mb 47f 45f
11:50am 11.5ft 10s 7s 18 22 mph 995.8mb 47f 44f